Terminal Aerodrome Forecast
Issued by NWS

Home | Current Version | Previous Version | Graphics & Text | Print | Product List | Glossary On
Versions: 1 2 3 4 5 6 7 8 9 10 11 12 13 14 15 16 17 18 19 20 21 22 23 24 25 26 27 28 29 30 31 32 33 34 35 36 37 38 39 40 41 42
000
FTUS43 KGRB 180932 AAB
TAFRHI
TAF AMD
KRHI 180932Z 1810/1906 VRB03KT P6SM SCT002 BKN120
      TEMPO 1810/1813 1SM BR BKN002
     FM182100 13005KT P6SM VCSH OVC050
     FM182300 11004KT P6SM -SHRA OVC050=

USA.gov is the U.S. government's official web portal to all federal, state and local government web resources and services.